sensor_id;sensor_type;location;lat;lon;timestamp;P1;durP1;ratioP1;P2;durP2;ratioP2
67597;SDS011;62026;39.230;9.122;2023-03-23T00:00:01;3.90;;;2.03;;
67597;SDS011;62026;39.230;9.122;2023-03-23T00:02:36;2.75;;;1.65;;
67597;SDS011;62026;39.230;9.122;2023-03-23T00:05:03;2.33;;;1.83;;
67597;SDS011;62026;39.230;9.122;2023-03-23T00:07:32;3.13;;;1.75;;
67597;SDS011;62026;39.230;9.122;2023-03-23T00:10:00;4.22;;;2.13;;
67597;SDS011;62026;39.230;9.122;2023-03-23T00:12:28;4.43;;;1.80;;
67597;SDS011;62026;39.230;9.122;2023-03-23T00:17:33;4.22;;;2.33;;
67597;SDS011;62026;39.230;9.122;2023-03-23T00:20:00;4.10;;;2.38;;
67597;SDS011;62026;39.230;9.122;2023-03-23T00:22:30;5.30;;;2.40;;
67597;SDS011;62026;39.230;9.122;2023-03-23T00:25:03;3.63;;;2.30;;
67597;SDS011;62026;39.230;9.122;2023-03-23T00:27:30;3.97;;;1.83;;
67597;SDS011;62026;39.230;9.122;2023-03-23T00:29:56;3.47;;;2.10;;
67597;SDS011;62026;39.230;9.122;2023-03-23T00:32:23;3.65;;;2.33;;
67597;SDS011;62026;39.230;9.122;2023-03-23T00:34:54;3.63;;;2.00;;
67597;SDS011;62026;39.230;9.122;2023-03-23T00:37:25;3.10;;;2.00;;
67597;SDS011;62026;39.230;9.122;2023-03-23T00:39:52;3.92;;;2.30;;
67597;SDS011;62026;39.230;9.122;2023-03-23T00:42:22;3.50;;;2.10;;
67597;SDS011;62026;39.230;9.122;2023-03-23T00:44:49;3.88;;;2.22;;
67597;SDS011;62026;39.230;9.122;2023-03-23T00:47:16;3.78;;;2.50;;
67597;SDS011;62026;39.230;9.122;2023-03-23T00:49:42;6.75;;;2.25;;
67597;SDS011;62026;39.230;9.122;2023-03-23T00:52:09;3.53;;;2.03;;
67597;SDS011;62026;39.230;9.122;2023-03-23T00:54:35;5.70;;;2.40;;
67597;SDS011;62026;39.230;9.122;2023-03-23T00:57:03;5.22;;;2.35;;
67597;SDS011;62026;39.230;9.122;2023-03-23T00:59:31;4.72;;;2.17;;
67597;SDS011;62026;39.230;9.122;2023-03-23T01:01:57;6.85;;;1.58;;
67597;SDS011;62026;39.230;9.122;2023-03-23T01:04:23;3.42;;;1.80;;
67597;SDS011;62026;39.230;9.122;2023-03-23T01:06:49;3.25;;;2.03;;
67597;SDS011;62026;39.230;9.122;2023-03-23T01:09:17;3.13;;;2.08;;
67597;SDS011;62026;39.230;9.122;2023-03-23T01:11:47;4.68;;;2.00;;
67597;SDS011;62026;39.230;9.122;2023-03-23T01:14:17;4.68;;;2.35;;
67597;SDS011;62026;39.230;9.122;2023-03-23T01:16:47;5.95;;;2.33;;
67597;SDS011;62026;39.230;9.122;2023-03-23T01:19:13;5.57;;;2.38;;
67597;SDS011;62026;39.230;9.122;2023-03-23T01:21:41;6.00;;;2.30;;
67597;SDS011;62026;39.230;9.122;2023-03-23T01:24:07;4.25;;;2.38;;
67597;SDS011;62026;39.230;9.122;2023-03-23T01:26:33;4.20;;;2.25;;
67597;SDS011;62026;39.230;9.122;2023-03-23T01:28:59;4.75;;;2.13;;
67597;SDS011;62026;39.230;9.122;2023-03-23T01:31:25;4.15;;;2.10;;
67597;SDS011;62026;39.230;9.122;2023-03-23T01:33:51;4.63;;;2.33;;
67597;SDS011;62026;39.230;9.122;2023-03-23T01:36:21;4.10;;;2.50;;
67597;SDS011;62026;39.230;9.122;2023-03-23T01:38:52;5.10;;;2.40;;
67597;SDS011;62026;39.230;9.122;2023-03-23T01:41:19;3.70;;;2.58;;
67597;SDS011;62026;39.230;9.122;2023-03-23T01:43:59;5.40;;;2.95;;
67597;SDS011;62026;39.230;9.122;2023-03-23T01:46:35;4.93;;;3.20;;
67597;SDS011;62026;39.230;9.122;2023-03-23T01:51:43;5.43;;;3.00;;
67597;SDS011;62026;39.230;9.122;2023-03-23T01:54:16;5.13;;;3.13;;
67597;SDS011;62026;39.230;9.122;2023-03-23T01:56:48;6.68;;;3.25;;
67597;SDS011;62026;39.230;9.122;2023-03-23T01:59:19;4.68;;;3.13;;
67597;SDS011;62026;39.230;9.122;2023-03-23T02:01:53;7.93;;;3.38;;
67597;SDS011;62026;39.230;9.122;2023-03-23T02:04:21;6.15;;;2.88;;
67597;SDS011;62026;39.230;9.122;2023-03-23T02:06:50;5.10;;;2.80;;
67597;SDS011;62026;39.230;9.122;2023-03-23T02:09:20;7.95;;;3.35;;
67597;SDS011;62026;39.230;9.122;2023-03-23T02:11:48;4.60;;;3.00;;
67597;SDS011;62026;39.230;9.122;2023-03-23T02:14:15;5.22;;;2.75;;
67597;SDS011;62026;39.230;9.122;2023-03-23T02:25:43;5.30;;;3.00;;
67597;SDS011;62026;39.230;9.122;2023-03-23T02:34:57;3.63;;;2.80;;
67597;SDS011;62026;39.230;9.122;2023-03-23T02:37:32;4.30;;;2.75;;
67597;SDS011;62026;39.230;9.122;2023-03-23T02:40:11;4.63;;;2.97;;
67597;SDS011;62026;39.230;9.122;2023-03-23T02:42:45;4.60;;;2.80;;
67597;SDS011;62026;39.230;9.122;2023-03-23T02:45:18;6.15;;;3.10;;
67597;SDS011;62026;39.230;9.122;2023-03-23T02:47:46;4.32;;;2.65;;
67597;SDS011;62026;39.230;9.122;2023-03-23T02:50:19;7.13;;;3.00;;
67597;SDS011;62026;39.230;9.122;2023-03-23T02:52:49;7.53;;;3.30;;
67597;SDS011;62026;39.230;9.122;2023-03-23T02:55:18;7.63;;;2.95;;
67597;SDS011;62026;39.230;9.122;2023-03-23T02:57:51;6.55;;;3.13;;
67597;SDS011;62026;39.230;9.122;2023-03-23T03:00:19;5.28;;;3.28;;
67597;SDS011;62026;39.230;9.122;2023-03-23T03:02:50;3.90;;;2.33;;
67597;SDS011;62026;39.230;9.122;2023-03-23T03:11:17;6.38;;;2.78;;
67597;SDS011;62026;39.230;9.122;2023-03-23T03:14:02;6.32;;;2.70;;
67597;SDS011;62026;39.230;9.122;2023-03-23T03:16:38;4.40;;;2.70;;
67597;SDS011;62026;39.230;9.122;2023-03-23T03:19:45;4.35;;;2.55;;
67597;SDS011;62026;39.230;9.122;2023-03-23T03:22:16;5.47;;;2.65;;
67597;SDS011;62026;39.230;9.122;2023-03-23T03:24:46;4.00;;;2.50;;
67597;SDS011;62026;39.230;9.122;2023-03-23T03:27:16;4.97;;;2.80;;
67597;SDS011;62026;39.230;9.122;2023-03-23T03:29:53;4.97;;;2.80;;
67597;SDS011;62026;39.230;9.122;2023-03-23T03:32:26;9.45;;;3.42;;
67597;SDS011;62026;39.230;9.122;2023-03-23T03:35:01;4.32;;;2.60;;
67597;SDS011;62026;39.230;9.122;2023-03-23T03:37:33;5.25;;;3.03;;
67597;SDS011;62026;39.230;9.122;2023-03-23T03:40:16;7.75;;;3.20;;
67597;SDS011;62026;39.230;9.122;2023-03-23T03:42:45;6.32;;;3.00;;
67597;SDS011;62026;39.230;9.122;2023-03-23T03:45:14;5.57;;;3.10;;
67597;SDS011;62026;39.230;9.122;2023-03-23T03:47:44;4.15;;;2.75;;
67597;SDS011;62026;39.230;9.122;2023-03-23T03:50:10;5.05;;;3.10;;
67597;SDS011;62026;39.230;9.122;2023-03-23T03:52:37;4.30;;;2.92;;
67597;SDS011;62026;39.230;9.122;2023-03-23T03:55:04;4.03;;;3.10;;
67597;SDS011;62026;39.230;9.122;2023-03-23T03:57:34;6.50;;;3.15;;
67597;SDS011;62026;39.230;9.122;2023-03-23T04:00:03;4.85;;;2.95;;
67597;SDS011;62026;39.230;9.122;2023-03-23T04:02:50;5.03;;;2.78;;
67597;SDS011;62026;39.230;9.122;2023-03-23T04:05:28;3.47;;;2.45;;
67597;SDS011;62026;39.230;9.122;2023-03-23T04:07:55;5.85;;;2.90;;
67597;SDS011;62026;39.230;9.122;2023-03-23T04:10:30;4.50;;;2.65;;
67597;SDS011;62026;39.230;9.122;2023-03-23T04:12:57;8.15;;;2.90;;
67597;SDS011;62026;39.230;9.122;2023-03-23T04:15:56;4.90;;;2.78;;
67597;SDS011;62026;39.230;9.122;2023-03-23T04:18:22;5.05;;;2.70;;
67597;SDS011;62026;39.230;9.122;2023-03-23T04:20:49;4.93;;;2.80;;
67597;SDS011;62026;39.230;9.122;2023-03-23T04:23:19;5.97;;;2.78;;
67597;SDS011;62026;39.230;9.122;2023-03-23T04:25:48;6.68;;;3.00;;
67597;SDS011;62026;39.230;9.122;2023-03-23T04:28:17;4.10;;;2.67;;
67597;SDS011;62026;39.230;9.122;2023-03-23T04:31:04;3.50;;;2.65;;
67597;SDS011;62026;39.230;9.122;2023-03-23T04:33:30;6.75;;;2.83;;
67597;SDS011;62026;39.230;9.122;2023-03-23T04:35:59;4.05;;;2.63;;
67597;SDS011;62026;39.230;9.122;2023-03-23T04:38:34;6.53;;;2.92;;
67597;SDS011;62026;39.230;9.122;2023-03-23T04:41:08;6.82;;;2.90;;
67597;SDS011;62026;39.230;9.122;2023-03-23T04:43:58;3.72;;;2.72;;
67597;SDS011;62026;39.230;9.122;2023-03-23T04:46:34;5.75;;;3.17;;
67597;SDS011;62026;39.230;9.122;2023-03-23T04:49:06;4.13;;;2.70;;
67597;SDS011;62026;39.230;9.122;2023-03-23T04:51:35;3.83;;;2.95;;
67597;SDS011;62026;39.230;9.122;2023-03-23T04:54:19;4.97;;;2.97;;
67597;SDS011;62026;39.230;9.122;2023-03-23T04:56:49;5.25;;;2.95;;
67597;SDS011;62026;39.230;9.122;2023-03-23T04:59:15;5.20;;;2.85;;
67597;SDS011;62026;39.230;9.122;2023-03-23T05:01:52;4.30;;;3.10;;
67597;SDS011;62026;39.230;9.122;2023-03-23T05:04:20;3.83;;;3.03;;
67597;SDS011;62026;39.230;9.122;2023-03-23T05:07:02;5.80;;;3.08;;
67597;SDS011;62026;39.230;9.122;2023-03-23T05:09:32;4.07;;;2.47;;
67597;SDS011;62026;39.230;9.122;2023-03-23T05:12:03;5.82;;;2.90;;
67597;SDS011;62026;39.230;9.122;2023-03-23T05:14:42;4.45;;;2.80;;
67597;SDS011;62026;39.230;9.122;2023-03-23T05:17:12;4.95;;;2.58;;
67597;SDS011;62026;39.230;9.122;2023-03-23T05:19:43;8.43;;;3.22;;
67597;SDS011;62026;39.230;9.122;2023-03-23T05:22:28;7.13;;;3.28;;
67597;SDS011;62026;39.230;9.122;2023-03-23T05:24:59;8.75;;;4.45;;
67597;SDS011;62026;39.230;9.122;2023-03-23T05:27:30;7.80;;;4.10;;
67597;SDS011;62026;39.230;9.122;2023-03-23T05:30:01;10.02;;;5.80;;
67597;SDS011;62026;39.230;9.122;2023-03-23T05:32:30;9.35;;;5.63;;
67597;SDS011;62026;39.230;9.122;2023-03-23T05:35:03;11.43;;;6.78;;
67597;SDS011;62026;39.230;9.122;2023-03-23T05:37:30;11.10;;;7.53;;
67597;SDS011;62026;39.230;9.122;2023-03-23T05:40:06;11.70;;;8.20;;
67597;SDS011;62026;39.230;9.122;2023-03-23T05:42:43;11.00;;;8.05;;
67597;SDS011;62026;39.230;9.122;2023-03-23T05:45:17;11.05;;;7.55;;
67597;SDS011;62026;39.230;9.122;2023-03-23T05:47:45;9.65;;;6.75;;
67597;SDS011;62026;39.230;9.122;2023-03-23T05:52:44;9.23;;;5.25;;
67597;SDS011;62026;39.230;9.122;2023-03-23T05:55:12;11.00;;;5.63;;
67597;SDS011;62026;39.230;9.122;2023-03-23T05:57:41;11.55;;;5.40;;
67597;SDS011;62026;39.230;9.122;2023-03-23T06:00:17;13.60;;;6.10;;
67597;SDS011;62026;39.230;9.122;2023-03-23T06:02:55;13.98;;;4.90;;
67597;SDS011;62026;39.230;9.122;2023-03-23T06:05:30;16.13;;;5.80;;
67597;SDS011;62026;39.230;9.122;2023-03-23T06:07:58;12.20;;;5.43;;
67597;SDS011;62026;39.230;9.122;2023-03-23T06:10:25;9.20;;;4.65;;
67597;SDS011;62026;39.230;9.122;2023-03-23T06:12:58;9.75;;;4.32;;
67597;SDS011;62026;39.230;9.122;2023-03-23T06:15:44;9.68;;;4.80;;
67597;SDS011;62026;39.230;9.122;2023-03-23T06:18:21;11.38;;;5.40;;
67597;SDS011;62026;39.230;9.122;2023-03-23T06:21:09;7.95;;;4.18;;
67597;SDS011;62026;39.230;9.122;2023-03-23T06:23:50;11.27;;;4.25;;
67597;SDS011;62026;39.230;9.122;2023-03-23T06:26:18;12.43;;;5.22;;
67597;SDS011;62026;39.230;9.122;2023-03-23T06:28:55;10.20;;;4.15;;
67597;SDS011;62026;39.230;9.122;2023-03-23T06:31:21;9.63;;;4.22;;
67597;SDS011;62026;39.230;9.122;2023-03-23T06:33:48;7.63;;;3.72;;
67597;SDS011;62026;39.230;9.122;2023-03-23T06:36:37;6.45;;;3.88;;
67597;SDS011;62026;39.230;9.122;2023-03-23T06:39:13;6.25;;;4.13;;
67597;SDS011;62026;39.230;9.122;2023-03-23T06:42:02;6.47;;;4.22;;
67597;SDS011;62026;39.230;9.122;2023-03-23T06:44:32;6.22;;;3.65;;
67597;SDS011;62026;39.230;9.122;2023-03-23T06:46:58;6.07;;;3.55;;
67597;SDS011;62026;39.230;9.122;2023-03-23T06:49:28;7.55;;;4.03;;
67597;SDS011;62026;39.230;9.122;2023-03-23T06:52:03;6.38;;;4.20;;
67597;SDS011;62026;39.230;9.122;2023-03-23T06:54:32;7.80;;;4.18;;
67597;SDS011;62026;39.230;9.122;2023-03-23T06:57:00;8.07;;;3.80;;
67597;SDS011;62026;39.230;9.122;2023-03-23T06:59:26;10.63;;;5.13;;
67597;SDS011;62026;39.230;9.122;2023-03-23T07:01:52;14.10;;;5.30;;
67597;SDS011;62026;39.230;9.122;2023-03-23T07:04:18;6.93;;;4.35;;
67597;SDS011;62026;39.230;9.122;2023-03-23T07:07:01;8.30;;;5.13;;
67597;SDS011;62026;39.230;9.122;2023-03-23T07:09:31;8.13;;;4.43;;
67597;SDS011;62026;39.230;9.122;2023-03-23T07:11:58;8.32;;;4.85;;
67597;SDS011;62026;39.230;9.122;2023-03-23T07:14:31;7.70;;;4.82;;
67597;SDS011;62026;39.230;9.122;2023-03-23T07:16:57;6.70;;;4.45;;
67597;SDS011;62026;39.230;9.122;2023-03-23T07:19:24;9.20;;;5.10;;
67597;SDS011;62026;39.230;9.122;2023-03-23T07:21:50;8.23;;;5.22;;
67597;SDS011;62026;39.230;9.122;2023-03-23T07:24:19;10.80;;;5.35;;
67597;SDS011;62026;39.230;9.122;2023-03-23T07:39:15;13.68;;;5.97;;
67597;SDS011;62026;39.230;9.122;2023-03-23T07:41:43;8.35;;;5.35;;
67597;SDS011;62026;39.230;9.122;2023-03-23T07:44:22;10.30;;;5.25;;
67597;SDS011;62026;39.230;9.122;2023-03-23T07:46:50;7.88;;;4.40;;
67597;SDS011;62026;39.230;9.122;2023-03-23T07:49:26;8.40;;;4.63;;
67597;SDS011;62026;39.230;9.122;2023-03-23T07:52:02;7.03;;;4.20;;
67597;SDS011;62026;39.230;9.122;2023-03-23T07:54:29;8.73;;;4.22;;
67597;SDS011;62026;39.230;9.122;2023-03-23T07:57:02;5.13;;;3.80;;
67597;SDS011;62026;39.230;9.122;2023-03-23T07:59:32;8.52;;;3.63;;
67597;SDS011;62026;39.230;9.122;2023-03-23T08:01:59;10.27;;;3.90;;
67597;SDS011;62026;39.230;9.122;2023-03-23T08:04:44;6.15;;;3.50;;
67597;SDS011;62026;39.230;9.122;2023-03-23T08:07:35;9.48;;;3.47;;
67597;SDS011;62026;39.230;9.122;2023-03-23T08:10:16;5.03;;;2.83;;
67597;SDS011;62026;39.230;9.122;2023-03-23T08:12:52;8.98;;;3.28;;
67597;SDS011;62026;39.230;9.122;2023-03-23T08:15:39;4.55;;;2.90;;
67597;SDS011;62026;39.230;9.122;2023-03-23T08:18:24;4.95;;;3.25;;
67597;SDS011;62026;39.230;9.122;2023-03-23T08:21:10;8.50;;;3.90;;
67597;SDS011;62026;39.230;9.122;2023-03-23T08:24:06;6.57;;;3.50;;
67597;SDS011;62026;39.230;9.122;2023-03-23T08:26:44;6.75;;;3.67;;
67597;SDS011;62026;39.230;9.122;2023-03-23T08:29:10;7.78;;;3.30;;
67597;SDS011;62026;39.230;9.122;2023-03-23T08:31:48;6.72;;;2.92;;
67597;SDS011;62026;39.230;9.122;2023-03-23T08:34:29;6.53;;;2.83;;
67597;SDS011;62026;39.230;9.122;2023-03-23T08:37:02;4.25;;;2.78;;
67597;SDS011;62026;39.230;9.122;2023-03-23T08:39:50;5.00;;;2.80;;
67597;SDS011;62026;39.230;9.122;2023-03-23T08:42:38;5.43;;;2.67;;
67597;SDS011;62026;39.230;9.122;2023-03-23T08:45:27;7.53;;;2.55;;
67597;SDS011;62026;39.230;9.122;2023-03-23T08:48:23;7.32;;;2.90;;
67597;SDS011;62026;39.230;9.122;2023-03-23T08:50:55;5.82;;;2.53;;
67597;SDS011;62026;39.230;9.122;2023-03-23T08:53:47;4.32;;;2.60;;
67597;SDS011;62026;39.230;9.122;2023-03-23T08:56:34;5.50;;;2.40;;
67597;SDS011;62026;39.230;9.122;2023-03-23T08:59:10;4.28;;;2.55;;
67597;SDS011;62026;39.230;9.122;2023-03-23T09:01:49;7.15;;;2.40;;
67597;SDS011;62026;39.230;9.122;2023-03-23T09:04:20;6.35;;;2.50;;
67597;SDS011;62026;39.230;9.122;2023-03-23T09:07:09;5.07;;;2.10;;
67597;SDS011;62026;39.230;9.122;2023-03-23T09:09:37;4.68;;;2.38;;
67597;SDS011;62026;39.230;9.122;2023-03-23T09:12:08;7.85;;;2.25;;
67597;SDS011;62026;39.230;9.122;2023-03-23T09:14:36;6.38;;;2.50;;
67597;SDS011;62026;39.230;9.122;2023-03-23T09:17:03;6.25;;;2.38;;
67597;SDS011;62026;39.230;9.122;2023-03-23T09:19:34;6.20;;;2.25;;
67597;SDS011;62026;39.230;9.122;2023-03-23T09:22:00;4.60;;;2.42;;
67597;SDS011;62026;39.230;9.122;2023-03-23T09:24:30;4.38;;;2.42;;
67597;SDS011;62026;39.230;9.122;2023-03-23T09:26:56;6.55;;;3.05;;
67597;SDS011;62026;39.230;9.122;2023-03-23T09:29:24;4.53;;;3.08;;
67597;SDS011;62026;39.230;9.122;2023-03-23T09:31:52;5.03;;;3.33;;
67597;SDS011;62026;39.230;9.122;2023-03-23T09:34:19;6.75;;;3.15;;
67597;SDS011;62026;39.230;9.122;2023-03-23T09:36:46;3.88;;;2.67;;
67597;SDS011;62026;39.230;9.122;2023-03-23T09:39:12;4.43;;;2.47;;
67597;SDS011;62026;39.230;9.122;2023-03-23T09:44:21;4.70;;;2.35;;
67597;SDS011;62026;39.230;9.122;2023-03-23T09:50:08;5.00;;;2.22;;
67597;SDS011;62026;39.230;9.122;2023-03-23T09:55:19;5.30;;;2.30;;
67597;SDS011;62026;39.230;9.122;2023-03-23T09:57:49;8.65;;;2.20;;
67597;SDS011;62026;39.230;9.122;2023-03-23T10:00:35;6.45;;;2.22;;
67597;SDS011;62026;39.230;9.122;2023-03-23T10:03:14;4.82;;;2.03;;
67597;SDS011;62026;39.230;9.122;2023-03-23T10:05:51;5.30;;;1.95;;
67597;SDS011;62026;39.230;9.122;2023-03-23T10:08:20;4.82;;;1.80;;
67597;SDS011;62026;39.230;9.122;2023-03-23T10:13:40;4.25;;;1.67;;
67597;SDS011;62026;39.230;9.122;2023-03-23T10:16:19;3.30;;;1.65;;
67597;SDS011;62026;39.230;9.122;2023-03-23T10:22:04;2.40;;;1.40;;
67597;SDS011;62026;39.230;9.122;2023-03-23T10:24:40;1.77;;;1.30;;
67597;SDS011;62026;39.230;9.122;2023-03-23T10:27:58;4.47;;;1.30;;
67597;SDS011;62026;39.230;9.122;2023-03-23T10:31:02;1.65;;;1.20;;
67597;SDS011;62026;39.230;9.122;2023-03-23T10:33:40;2.30;;;1.35;;
67597;SDS011;62026;39.230;9.122;2023-03-23T10:39:24;5.30;;;1.40;;
67597;SDS011;62026;39.230;9.122;2023-03-23T10:41:42;4.03;;;1.27;;
67597;SDS011;62026;39.230;9.122;2023-03-23T10:44:21;7.50;;;1.52;;
67597;SDS011;62026;39.230;9.122;2023-03-23T10:46:53;13.05;;;1.75;;
67597;SDS011;62026;39.230;9.122;2023-03-23T10:49:37;4.75;;;1.88;;
67597;SDS011;62026;39.230;9.122;2023-03-23T10:57:41;2.83;;;1.58;;
67597;SDS011;62026;39.230;9.122;2023-03-23T11:00:24;2.47;;;1.50;;
67597;SDS011;62026;39.230;9.122;2023-03-23T11:03:06;2.65;;;1.30;;
67597;SDS011;62026;39.230;9.122;2023-03-23T11:05:52;2.45;;;1.17;;
67597;SDS011;62026;39.230;9.122;2023-03-23T11:08:30;1.80;;;1.30;;
67597;SDS011;62026;39.230;9.122;2023-03-23T11:11:09;3.63;;;1.65;;
67597;SDS011;62026;39.230;9.122;2023-03-23T11:14:01;3.53;;;1.58;;
67597;SDS011;62026;39.230;9.122;2023-03-23T11:16:45;1.77;;;1.23;;
67597;SDS011;62026;39.230;9.122;2023-03-23T11:19:22;3.95;;;1.30;;
67597;SDS011;62026;39.230;9.122;2023-03-23T11:24:32;4.18;;;1.30;;
67597;SDS011;62026;39.230;9.122;2023-03-23T11:27:07;2.70;;;1.20;;
67597;SDS011;62026;39.230;9.122;2023-03-23T11:29:36;2.30;;;1.27;;
67597;SDS011;62026;39.230;9.122;2023-03-23T11:32:42;2.30;;;1.13;;
67597;SDS011;62026;39.230;9.122;2023-03-23T11:35:17;3.75;;;1.20;;
67597;SDS011;62026;39.230;9.122;2023-03-23T11:37:54;2.38;;;1.38;;
67597;SDS011;62026;39.230;9.122;2023-03-23T11:40:27;2.05;;;1.10;;
67597;SDS011;62026;39.230;9.122;2023-03-23T11:42:58;3.40;;;1.33;;
67597;SDS011;62026;39.230;9.122;2023-03-23T11:45:50;2.72;;;1.50;;
67597;SDS011;62026;39.230;9.122;2023-03-23T11:48:39;3.38;;;1.50;;
67597;SDS011;62026;39.230;9.122;2023-03-23T11:51:55;2.60;;;1.43;;
67597;SDS011;62026;39.230;9.122;2023-03-23T11:54:57;5.50;;;1.67;;
67597;SDS011;62026;39.230;9.122;2023-03-23T11:57:36;2.33;;;1.42;;
67597;SDS011;62026;39.230;9.122;2023-03-23T12:00:10;5.50;;;1.60;;
67597;SDS011;62026;39.230;9.122;2023-03-23T12:06:06;3.17;;;1.50;;
67597;SDS011;62026;39.230;9.122;2023-03-23T12:14:51;7.10;;;3.10;;
67597;SDS011;62026;39.230;9.122;2023-03-23T12:37:40;7.05;;;3.90;;
67597;SDS011;62026;39.230;9.122;2023-03-23T12:43:13;7.38;;;3.03;;
67597;SDS011;62026;39.230;9.122;2023-03-23T12:46:00;4.45;;;2.78;;
67597;SDS011;62026;39.230;9.122;2023-03-23T12:48:39;5.32;;;2.60;;
67597;SDS011;62026;39.230;9.122;2023-03-23T12:51:20;5.28;;;2.53;;
67597;SDS011;62026;39.230;9.122;2023-03-23T12:54:26;7.15;;;3.00;;
67597;SDS011;62026;39.230;9.122;2023-03-23T12:57:11;5.05;;;2.53;;
67597;SDS011;62026;39.230;9.122;2023-03-23T12:59:56;7.78;;;2.22;;
67597;SDS011;62026;39.230;9.122;2023-03-23T13:05:35;12.27;;;2.75;;
67597;SDS011;62026;39.230;9.122;2023-03-23T13:08:38;6.68;;;2.25;;
67597;SDS011;62026;39.230;9.122;2023-03-23T13:11:25;4.55;;;2.13;;
67597;SDS011;62026;39.230;9.122;2023-03-23T13:14:06;6.25;;;2.72;;
67597;SDS011;62026;39.230;9.122;2023-03-23T13:23:31;6.43;;;2.20;;
67597;SDS011;62026;39.230;9.122;2023-03-23T13:26:13;4.07;;;2.30;;
67597;SDS011;62026;39.230;9.122;2023-03-23T13:34:03;6.00;;;1.70;;
67597;SDS011;62026;39.230;9.122;2023-03-23T13:36:56;2.80;;;1.88;;
67597;SDS011;62026;39.230;9.122;2023-03-23T13:40:16;4.97;;;1.90;;
67597;SDS011;62026;39.230;9.122;2023-03-23T13:42:52;3.85;;;1.85;;
67597;SDS011;62026;39.230;9.122;2023-03-23T13:45:23;3.42;;;1.95;;
67597;SDS011;62026;39.230;9.122;2023-03-23T13:50:44;5.80;;;2.33;;
67597;SDS011;62026;39.230;9.122;2023-03-23T13:56:18;5.95;;;1.88;;
67597;SDS011;62026;39.230;9.122;2023-03-23T14:01:56;3.28;;;1.40;;
67597;SDS011;62026;39.230;9.122;2023-03-23T14:04:54;2.38;;;1.50;;
67597;SDS011;62026;39.230;9.122;2023-03-23T14:07:22;2.90;;;1.73;;
67597;SDS011;62026;39.230;9.122;2023-03-23T14:09:49;3.45;;;1.50;;
67597;SDS011;62026;39.230;9.122;2023-03-23T14:12:20;3.00;;;1.50;;
67597;SDS011;62026;39.230;9.122;2023-03-23T14:14:58;5.90;;;1.60;;
67597;SDS011;62026;39.230;9.122;2023-03-23T14:17:30;2.70;;;1.70;;
67597;SDS011;62026;39.230;9.122;2023-03-23T14:20:15;2.38;;;1.50;;
67597;SDS011;62026;39.230;9.122;2023-03-23T14:22:59;3.45;;;1.90;;
67597;SDS011;62026;39.230;9.122;2023-03-23T14:25:29;4.75;;;2.00;;
67597;SDS011;62026;39.230;9.122;2023-03-23T14:27:58;4.07;;;1.58;;
67597;SDS011;62026;39.230;9.122;2023-03-23T14:30:25;2.53;;;1.73;;
67597;SDS011;62026;39.230;9.122;2023-03-23T14:33:04;9.35;;;1.90;;
67597;SDS011;62026;39.230;9.122;2023-03-23T14:35:34;5.00;;;1.70;;
67597;SDS011;62026;39.230;9.122;2023-03-23T14:38:04;1.63;;;1.20;;
67597;SDS011;62026;39.230;9.122;2023-03-23T14:40:41;4.90;;;1.45;;
67597;SDS011;62026;39.230;9.122;2023-03-23T14:43:08;4.70;;;1.20;;
67597;SDS011;62026;39.230;9.122;2023-03-23T14:45:40;3.03;;;1.35;;
67597;SDS011;62026;39.230;9.122;2023-03-23T14:48:07;4.15;;;1.50;;
67597;SDS011;62026;39.230;9.122;2023-03-23T14:50:40;5.25;;;1.45;;
67597;SDS011;62026;39.230;9.122;2023-03-23T14:53:22;4.18;;;1.27;;
67597;SDS011;62026;39.230;9.122;2023-03-23T14:56:22;3.50;;;1.27;;
67597;SDS011;62026;39.230;9.122;2023-03-23T14:58:53;6.65;;;1.50;;
67597;SDS011;62026;39.230;9.122;2023-03-23T15:01:23;4.47;;;1.63;;
67597;SDS011;62026;39.230;9.122;2023-03-23T15:03:55;4.38;;;1.75;;
67597;SDS011;62026;39.230;9.122;2023-03-23T15:06:37;4.10;;;1.50;;
67597;SDS011;62026;39.230;9.122;2023-03-23T15:09:18;7.83;;;1.63;;
67597;SDS011;62026;39.230;9.122;2023-03-23T15:11:54;4.35;;;1.60;;
67597;SDS011;62026;39.230;9.122;2023-03-23T15:14:27;5.88;;;1.98;;
67597;SDS011;62026;39.230;9.122;2023-03-23T15:17:19;3.30;;;1.73;;
67597;SDS011;62026;39.230;9.122;2023-03-23T15:19:50;5.82;;;2.03;;
67597;SDS011;62026;39.230;9.122;2023-03-23T15:25:02;4.60;;;1.63;;
67597;SDS011;62026;39.230;9.122;2023-03-23T15:27:42;3.83;;;1.70;;
67597;SDS011;62026;39.230;9.122;2023-03-23T15:30:18;2.60;;;1.48;;
67597;SDS011;62026;39.230;9.122;2023-03-23T15:35:39;2.42;;;1.20;;
67597;SDS011;62026;39.230;9.122;2023-03-23T15:38:24;6.22;;;1.40;;
67597;SDS011;62026;39.230;9.122;2023-03-23T15:40:57;3.15;;;1.55;;
67597;SDS011;62026;39.230;9.122;2023-03-23T15:43:31;4.05;;;1.70;;
67597;SDS011;62026;39.230;9.122;2023-03-23T15:49:26;3.75;;;1.60;;
67597;SDS011;62026;39.230;9.122;2023-03-23T15:51:36;3.03;;;1.42;;
67597;SDS011;62026;39.230;9.122;2023-03-23T15:54:02;3.92;;;1.48;;
67597;SDS011;62026;39.230;9.122;2023-03-23T15:59:00;7.28;;;1.40;;
67597;SDS011;62026;39.230;9.122;2023-03-23T16:01:27;2.50;;;1.38;;
67597;SDS011;62026;39.230;9.122;2023-03-23T16:03:56;9.32;;;1.60;;
67597;SDS011;62026;39.230;9.122;2023-03-23T16:06:31;4.78;;;1.40;;
67597;SDS011;62026;39.230;9.122;2023-03-23T16:09:00;2.38;;;1.27;;
67597;SDS011;62026;39.230;9.122;2023-03-23T16:11:28;3.95;;;1.60;;
67597;SDS011;62026;39.230;9.122;2023-03-23T16:13:56;2.63;;;1.30;;
67597;SDS011;62026;39.230;9.122;2023-03-23T16:16:26;1.70;;;1.40;;
67597;SDS011;62026;39.230;9.122;2023-03-23T16:19:00;2.70;;;1.40;;
67597;SDS011;62026;39.230;9.122;2023-03-23T16:21:27;2.08;;;1.33;;
67597;SDS011;62026;39.230;9.122;2023-03-23T16:23:53;6.45;;;1.23;;
67597;SDS011;62026;39.230;9.122;2023-03-23T16:26:20;3.70;;;1.23;;
67597;SDS011;62026;39.230;9.122;2023-03-23T16:28:46;5.70;;;1.25;;
67597;SDS011;62026;39.230;9.122;2023-03-23T16:31:12;12.43;;;1.15;;
67597;SDS011;62026;39.230;9.122;2023-03-23T16:33:38;2.00;;;1.10;;
67597;SDS011;62026;39.230;9.122;2023-03-23T16:36:05;2.42;;;1.10;;
67597;SDS011;62026;39.230;9.122;2023-03-23T16:38:31;5.13;;;1.20;;
67597;SDS011;62026;39.230;9.122;2023-03-23T16:40:57;9.10;;;0.90;;
67597;SDS011;62026;39.230;9.122;2023-03-23T16:43:23;3.83;;;1.10;;
67597;SDS011;62026;39.230;9.122;2023-03-23T16:45:50;4.47;;;1.10;;
67597;SDS011;62026;39.230;9.122;2023-03-23T16:48:21;4.70;;;0.80;;
67597;SDS011;62026;39.230;9.122;2023-03-23T16:50:47;3.95;;;1.20;;
67597;SDS011;62026;39.230;9.122;2023-03-23T16:53:15;5.10;;;1.10;;
67597;SDS011;62026;39.230;9.122;2023-03-23T16:55:41;6.20;;;1.40;;
67597;SDS011;62026;39.230;9.122;2023-03-23T16:58:11;3.05;;;1.13;;
67597;SDS011;62026;39.230;9.122;2023-03-23T17:00:39;5.85;;;1.40;;
67597;SDS011;62026;39.230;9.122;2023-03-23T17:03:06;4.90;;;1.35;;
67597;SDS011;62026;39.230;9.122;2023-03-23T17:05:34;2.75;;;0.90;;
67597;SDS011;62026;39.230;9.122;2023-03-23T17:08:01;2.65;;;0.90;;
67597;SDS011;62026;39.230;9.122;2023-03-23T17:10:28;2.58;;;0.88;;
67597;SDS011;62026;39.230;9.122;2023-03-23T17:12:55;1.10;;;0.70;;
67597;SDS011;62026;39.230;9.122;2023-03-23T17:15:21;3.38;;;1.10;;
67597;SDS011;62026;39.230;9.122;2023-03-23T17:17:49;1.80;;;0.80;;
67597;SDS011;62026;39.230;9.122;2023-03-23T17:20:16;2.85;;;1.33;;
67597;SDS011;62026;39.230;9.122;2023-03-23T17:22:42;3.92;;;1.40;;
67597;SDS011;62026;39.230;9.122;2023-03-23T17:25:09;4.35;;;1.00;;
67597;SDS011;62026;39.230;9.122;2023-03-23T17:27:35;5.70;;;1.25;;
67597;SDS011;62026;39.230;9.122;2023-03-23T17:30:05;4.97;;;1.13;;
67597;SDS011;62026;39.230;9.122;2023-03-23T17:32:33;4.20;;;1.05;;
67597;SDS011;62026;39.230;9.122;2023-03-23T17:35:00;3.83;;;1.60;;
67597;SDS011;62026;39.230;9.122;2023-03-23T17:37:29;5.07;;;1.00;;
67597;SDS011;62026;39.230;9.122;2023-03-23T17:39:56;4.07;;;1.10;;
67597;SDS011;62026;39.230;9.122;2023-03-23T17:42:22;1.35;;;0.90;;